Time;durP1;ratioP1;P1;durP2;ratioP2;P2;SDS_P1;SDS_P2;PMS_P1;PMS_P2;Temp;Humidity;BMP_temperature;BMP_pressure;BME280_temperature;BME280_humidity;BME280_pressure;Samples;Min_cycle;Max_cycle;Signal;HPM_P1;HPM_P2
2022/06/13 00:02:10;;;;;;;;;;;;;;;20.98;100.00;99689.09;5054406;28;19955;-68
2022/06/13 00:04:36;;;;;;;;;;;;;;;21.08;100.00;99683.16;5072437;28;20383;-69
2022/06/13 00:07:04;;;;;;;;;;;;;;;21.08;100.00;99679.75;5072463;28;19912;-69
2022/06/13 00:09:30;;;;;;;;;;;;;;;21.26;100.00;99688.69;5072241;28;19918;-69
2022/06/13 00:11:55;;;;;;;;;;;;;;;21.20;100.00;99673.66;5054268;28;20351;-70
2022/06/13 00:14:21;;;;;;;;;;;;;;;21.15;100.00;99671.44;5054578;28;19912;-69
2022/06/13 00:16:46;;;;;;;;;;;;;;;21.27;100.00;99675.63;5072440;28;20006;-69
2022/06/13 00:19:11;;;;;;;;;;;;;;;21.15;100.00;99673.19;5054085;28;19916;-70
2022/06/13 00:21:37;;;;;;;;;;;;;;;21.18;100.00;99667.78;5072563;28;19913;-69
2022/06/13 00:24:04;;;;;;;;;;;;;;;21.10;100.00;99668.34;5071854;28;19908;-69
2022/06/13 00:26:31;;;;;;;;;;;;;;;21.20;100.00;99671.06;5053471;28;19963;-70
2022/06/13 00:28:56;;;;;;;;;;;;;;;21.27;100.00;99672.25;5071343;28;20298;-70
2022/06/13 00:31:22;;;;;;;;;;;;;;;21.18;100.00;99662.59;5053607;28;19999;-71
2022/06/13 00:33:48;;;;;;;;;;;;;;;21.24;100.00;99667.31;5071412;28;19965;-69
2022/06/13 00:36:13;;;;;;;;;;;;;;;21.17;100.00;99664.38;5071705;28;19912;-70
2022/06/13 00:38:39;;;;;;;;;;;;;;;21.06;100.00;99655.78;5071924;28;19939;-70
2022/06/13 00:41:12;;;;;;;;;;;;;;;21.10;100.00;99659.78;5053469;28;19912;-70
2022/06/13 00:43:38;;;;;;;;;;;;;;;21.15;100.00;99655.09;5071647;28;19939;-69
2022/06/13 00:46:14;;;;;;;;;;;;;;;21.22;100.00;99657.09;5071619;28;19927;-70
2022/06/13 00:48:40;;;;;;;;;;;;;;;21.15;100.00;99655.91;5053573;28;19954;-69
2022/06/13 00:51:06;;;;;;;;;;;;;;;21.20;100.00;99656.38;5071493;28;19950;-69
2022/06/13 00:53:32;;;;;;;;;;;;;;;21.15;100.00;99653.34;5071690;28;19912;-70
2022/06/13 00:56:00;;;;;;;;;;;;;;;21.20;100.00;99650.38;5071002;28;19926;-69
2022/06/13 00:58:29;;;;;;;;;;;;;;;21.14;100.00;99651.66;5071370;28;19912;-71
2022/06/13 01:00:55;;;;;;;;;;;;;;;21.26;100.00;99635.22;5071613;28;19960;-70
2022/06/13 01:03:22;;;;;;;;;;;;;;;21.13;100.00;99641.47;5071550;28;19955;-70
2022/06/13 01:05:49;;;;;;;;;;;;;;;21.24;100.00;99638.84;5072169;28;19938;-69
2022/06/13 01:08:15;;;;;;;;;;;;;;;21.09;100.00;99629.69;5071825;28;19955;-75
2022/06/13 01:13:34;;;;;;;;;;;;;;;21.24;100.00;99631.94;5071428;28;20029;-69
2022/06/13 01:16:02;;;;;;;;;;;;;;;21.21;100.00;99627.00;5071093;28;20877;-69
2022/06/13 01:18:48;;;;;;;;;;;;;;;21.18;100.00;99631.56;5071477;28;19912;-69
2022/06/13 01:21:16;;;;;;;;;;;;;;;21.30;100.00;99635.78;5071412;28;19915;-69
2022/06/13 01:23:54;;;;;;;;;;;;;;;21.33;100.00;99638.16;5071311;28;19913;-70
2022/06/13 01:26:38;;;;;;;;;;;;;;;21.41;100.00;99639.19;5052888;28;20302;-69
2022/06/13 01:29:10;;;;;;;;;;;;;;;21.37;100.00;99626.63;5071208;28;19919;-70
2022/06/13 01:31:41;;;;;;;;;;;;;;;21.51;100.00;99628.97;5070784;28;19912;-68
2022/06/13 01:34:09;;;;;;;;;;;;;;;21.37;100.00;99629.22;5071477;28;19919;-69
2022/06/13 01:36:37;;;;;;;;;;;;;;;21.40;100.00;99626.38;5071069;28;19958;-69
2022/06/13 01:39:02;;;;;;;;;;;;;;;21.31;100.00;99622.72;5053232;28;20421;-68
2022/06/13 01:41:46;;;;;;;;;;;;;;;21.40;100.00;99624.63;5070928;28;19947;-70
2022/06/13 01:44:20;;;;;;;;;;;;;;;21.37;100.00;99619.66;5075480;28;19962;-68
2022/06/13 01:47:14;;;;;;;;;;;;;;;21.47;100.00;99615.44;5074764;28;19916;-69
2022/06/13 01:49:40;;;;;;;;;;;;;;;21.33;100.00;99607.13;4986799;28;19952;-68
2022/06/13 01:52:16;;;;;;;;;;;;;;;21.38;100.00;99603.22;5074491;28;19959;-69
2022/06/13 01:54:42;;;;;;;;;;;;;;;21.33;100.00;99612.28;5074830;28;20406;-69
2022/06/13 01:57:11;;;;;;;;;;;;;;;21.41;100.00;99604.75;5074593;28;19919;-68
2022/06/13 02:00:05;;;;;;;;;;;;;;;21.31;100.00;99617.56;5074961;28;19912;-68
2022/06/13 02:02:36;;;;;;;;;;;;;;;21.21;100.00;99602.91;5074784;28;19950;-68
2022/06/13 02:05:06;;;;;;;;;;;;;;;21.98;100.00;99618.28;5074600;28;19916;-68
2022/06/13 02:07:36;;;;;;;;;;;;;;;22.21;100.00;99630.16;5074565;28;19912;-69
2022/06/13 02:10:14;;;;;;;;;;;;;;;21.99;100.00;99625.06;5074549;28;19923;-70
2022/06/13 02:12:42;;;;;;;;;;;;;;;21.74;100.00;99629.72;5074568;28;19916;-69
2022/06/13 02:15:11;;;;;;;;;;;;;;;21.62;100.00;99623.75;5074319;28;19920;-69
2022/06/13 02:17:41;;;;;;;;;;;;;;;21.50;100.00;99627.31;5074371;28;19916;-69
2022/06/13 02:20:08;;;;;;;;;;;;;;;21.44;100.00;99638.97;5073913;28;20391;-69
2022/06/13 02:22:49;;;;;;;;;;;;;;;21.43;100.00;99636.50;5074235;28;19912;-69
2022/06/13 02:25:14;;;;;;;;;;;;;;;21.48;100.00;99624.84;5056431;28;19912;-69
2022/06/13 02:27:41;;;;;;;;;;;;;;;21.37;100.00;99618.88;5056404;28;19912;-69
2022/06/13 02:30:08;;;;;;;;;;;;;;;21.27;100.00;99620.53;5088305;28;20021;-69
2022/06/13 02:32:46;;;;;;;;;;;;;;;21.41;100.00;99626.25;5094223;28;19911;-69
2022/06/13 02:35:14;;;;;;;;;;;;;;;21.31;100.00;99629.69;5094134;28;19916;-69
2022/06/13 02:37:39;;;;;;;;;;;;;;;21.23;100.00;99622.53;5075848;28;19935;-69
2022/06/13 02:40:17;;;;;;;;;;;;;;;21.24;100.00;99636.25;5093933;28;20319;-70
2022/06/13 02:42:45;;;;;;;;;;;;;;;21.24;100.00;99625.91;5094062;28;19923;-69
2022/06/13 02:45:14;;;;;;;;;;;;;;;21.13;100.00;99623.34;5094001;28;19916;-69
2022/06/13 02:48:03;;;;;;;;;;;;;;;21.13;100.00;99623.34;5093542;28;19997;-69
2022/06/13 02:50:51;;;;;;;;;;;;;;;21.13;100.00;99629.34;5074378;28;20404;-69
2022/06/13 02:53:26;;;;;;;;;;;;;;;21.29;100.00;99631.56;5054691;28;19915;-69
2022/06/13 02:56:14;;;;;;;;;;;;;;;21.37;100.00;99616.28;5093808;28;19919;-69
2022/06/13 02:58:46;;;;;;;;;;;;;;;21.34;100.00;99611.34;5082678;28;19959;-70
2022/06/13 03:01:15;;;;;;;;;;;;;;;21.29;100.00;99616.06;5075577;28;19911;-68
2022/06/13 03:03:44;;;;;;;;;;;;;;;21.25;100.00;99615.44;5093925;28;19911;-69
2022/06/13 03:06:33;;;;;;;;;;;;;;;21.16;100.00;99612.75;5093449;28;20370;-71
2022/06/13 03:09:08;;;;;;;;;;;;;;;21.10;100.00;99619.22;5075583;28;19927;-69
2022/06/13 03:11:45;;;;;;;;;;;;;;;21.08;100.00;99615.09;5074897;28;19919;-69
2022/06/13 03:14:29;;;;;;;;;;;;;;;21.02;100.00;99619.00;5074966;28;19912;-69
2022/06/13 03:16:54;;;;;;;;;;;;;;;21.04;100.00;99635.22;5075080;28;19912;-75
2022/06/13 03:19:23;;;;;;;;;;;;;;;21.09;100.00;99625.34;5075456;28;19912;-69
2022/06/13 03:21:51;;;;;;;;;;;;;;;20.96;100.00;99626.34;5093266;28;19982;-69
2022/06/13 03:24:19;;;;;;;;;;;;;;;21.10;100.00;99634.75;5093487;28;19916;-69
2022/06/13 03:26:48;;;;;;;;;;;;;;;21.14;100.00;99633.56;5093155;28;19919;-69
2022/06/13 03:29:19;;;;;;;;;;;;;;;20.96;100.00;99639.28;5093276;28;19908;-70
2022/06/13 03:31:47;;;;;;;;;;;;;;;20.87;100.00;99645.16;5074842;28;20339;-69
2022/06/13 03:34:16;;;;;;;;;;;;;;;21.01;100.00;99644.94;5093104;28;19916;-70
2022/06/13 03:36:51;;;;;;;;;;;;;;;21.16;100.00;99661.88;5091904;28;20009;-69
2022/06/13 03:39:22;;;;;;;;;;;;;;;21.52;100.00;99659.88;5070251;28;20038;-72
2022/06/13 03:41:51;;;;;;;;;;;;;;;21.55;100.00;99666.59;5067849;28;20007;-69
2022/06/13 03:44:39;;;;;;;;;;;;;;;21.59;100.00;99673.16;5092905;28;19916;-69
2022/06/13 03:47:11;;;;;;;;;;;;;;;21.29;100.00;99670.38;5053381;28;19916;-76
2022/06/13 03:49:46;;;;;;;;;;;;;;;21.22;100.00;99677.78;5072368;28;19913;-70
2022/06/13 03:52:12;;;;;;;;;;;;;;;21.40;100.00;99688.47;5072597;28;19923;-71
2022/06/13 03:54:51;;;;;;;;;;;;;;;21.62;100.00;99698.81;5054825;28;19916;-70
2022/06/13 03:57:16;;;;;;;;;;;;;;;21.66;100.00;99704.56;5072656;28;19916;-69
2022/06/13 03:59:41;;;;;;;;;;;;;;;21.82;100.00;99694.69;5071317;28;20481;-70
2022/06/13 04:02:08;;;;;;;;;;;;;;;22.20;100.00;99697.66;5072156;28;19990;-71
2022/06/13 04:04:38;;;;;;;;;;;;;;;22.02;100.00;99706.88;5071718;28;19913;-68
2022/06/13 04:07:04;;;;;;;;;;;;;;;21.91;100.00;99699.94;5072131;28;19913;-69
2022/06/13 04:09:38;;;;;;;;;;;;;;;22.01;100.00;99687.94;5054482;28;19919;-70
2022/06/13 04:12:06;;;;;;;;;;;;;;;22.08;100.00;99683.09;5072424;28;19916;-69
2022/06/13 04:14:35;;;;;;;;;;;;;;;22.13;100.00;99697.31;5074245;28;20382;-68
2022/06/13 04:17:05;;;;;;;;;;;;;;;22.14;100.00;99691.19;5091705;28;19912;-70
2022/06/13 04:19:34;;;;;;;;;;;;;;;22.32;100.00;99689.69;5092351;28;19912;-69
2022/06/13 04:22:13;;;;;;;;;;;;;;;22.41;100.00;99690.72;5092170;28;19908;-70
2022/06/13 04:24:47;;;;;;;;;;;;;;;22.46;100.00;99687.78;5092102;28;20396;-69
2022/06/13 04:27:15;;;;;;;;;;;;;;;22.37;100.00;99681.56;5073658;28;19916;-69
2022/06/13 04:29:47;;;;;;;;;;;;;;;22.52;100.00;99684.69;5074034;28;19912;-69
2022/06/13 04:32:17;;;;;;;;;;;;;;;22.29;100.00;99683.94;5091922;28;19927;-70
2022/06/13 04:34:51;;;;;;;;;;;;;;;22.53;100.00;99675.94;5074364;28;20366;-69
2022/06/13 04:37:17;;;;;;;;;;;;;;;22.63;100.00;99692.41;5091571;28;20227;-70
2022/06/13 04:39:44;;;;;;;;;;;;;;;22.69;100.00;99684.13;5089290;28;19966;-68
2022/06/13 04:42:11;;;;;;;;;;;;;;;22.85;100.00;99679.31;5072927;28;19973;-68
2022/06/13 04:44:36;;;;;;;;;;;;;;;22.74;100.00;99675.03;5073620;28;19919;-69
2022/06/13 04:47:03;;;;;;;;;;;;;;;22.65;100.00;99691.34;5091166;28;19916;-69
2022/06/13 04:49:34;;;;;;;;;;;;;;;22.56;100.00;99686.06;5073010;28;20243;-70
2022/06/13 04:52:05;;;;;;;;;;;;;;;22.35;100.00;99693.81;5089792;28;19928;-70
2022/06/13 04:54:33;;;;;;;;;;;;;;;22.31;100.00;99692.41;5091116;28;20258;-70
2022/06/13 04:56:59;;;;;;;;;;;;;;;22.25;100.00;99698.91;5073340;28;19938;-70
2022/06/13 04:59:24;;;;;;;;;;;;;;;22.30;100.00;99690.78;5090810;28;19912;-69
2022/06/13 05:01:50;;;;;;;;;;;;;;;22.38;100.00;99688.41;5091038;28;19937;-69
2022/06/13 05:04:18;;;;;;;;;;;;;;;22.28;100.00;99690.88;5072568;28;19908;-69
2022/06/13 05:06:45;;;;;;;;;;;;;;;22.17;100.00;99683.16;5072370;28;19977;-69
2022/06/13 05:09:10;;;;;;;;;;;;;;;22.08;100.00;99690.84;5091149;28;19915;-69
2022/06/13 05:11:44;;;;;;;;;;;;;;;21.98;100.00;99688.19;5072675;28;19961;-69
2022/06/13 05:14:30;;;;;;;;;;;;;;;22.07;100.00;99700.38;5072504;28;20007;-70
2022/06/13 05:17:13;;;;;;;;;;;;;;;22.09;100.00;99710.63;5048650;28;20354;-69
2022/06/13 05:20:01;;;;;;;;;;;;;;;22.12;100.00;99711.22;5091596;28;19916;-69
2022/06/13 05:22:36;;;;;;;;;;;;;;;22.04;100.00;99712.75;5053490;28;19961;-70
2022/06/13 05:25:19;;;;;;;;;;;;;;;22.04;100.00;99713.59;5091619;28;19926;-70
2022/06/13 05:27:44;;;;;;;;;;;;;;;21.97;100.00;99715.00;5090993;28;20374;-69
2022/06/13 05:30:13;;;;;;;;;;;;;;;22.33;100.00;99717.25;5090289;28;19932;-70
2022/06/13 05:32:38;;;;;;;;;;;;;;;22.31;100.00;99707.97;5073204;28;19923;-69
2022/06/13 05:35:03;;;;;;;;;;;;;;;22.46;100.00;99705.91;5091025;28;19912;-70
2022/06/13 05:37:29;;;;;;;;;;;;;;;22.82;100.00;99708.13;5091503;28;20007;-69
2022/06/13 05:39:54;;;;;;;;;;;;;;;22.76;100.00;99706.03;5073054;28;19912;-70
2022/06/13 05:42:19;;;;;;;;;;;;;;;22.80;100.00;99710.00;5090922;28;19935;-69
2022/06/13 05:44:45;;;;;;;;;;;;;;;22.81;100.00;99698.69;5091135;28;19919;-69
2022/06/13 05:47:15;;;;;;;;;;;;;;;22.88;100.00;99702.41;5089630;28;20302;-69
2022/06/13 05:49:40;;;;;;;;;;;;;;;22.93;100.00;99700.25;5091318;28;19920;-69
2022/06/13 05:52:05;;;;;;;;;;;;;;;23.05;100.00;99705.25;5072749;28;19916;-69
2022/06/13 05:54:31;;;;;;;;;;;;;;;23.06;100.00;99693.09;5090935;28;19915;-70
2022/06/13 05:56:56;;;;;;;;;;;;;;;22.94;100.00;99694.09;5072634;28;19912;-70
2022/06/13 05:59:21;;;;;;;;;;;;;;;22.77;100.00;99702.47;5090918;28;19912;-69
2022/06/13 06:01:47;;;;;;;;;;;;;;;22.74;100.00;99690.56;5072604;28;20375;-69
2022/06/13 06:04:12;;;;;;;;;;;;;;;22.77;100.00;99692.94;5090974;28;20011;-70
2022/06/13 06:06:37;;;;;;;;;;;;;;;22.88;100.00;99697.22;5091149;28;20336;-70
2022/06/13 06:09:05;;;;;;;;;;;;;;;22.82;100.00;99708.13;5073160;28;19913;-69
2022/06/13 06:11:30;;;;;;;;;;;;;;;22.72;100.00;99694.28;5090768;28;19912;-69
2022/06/13 06:13:56;;;;;;;;;;;;;;;22.61;100.00;99692.56;5072765;28;19920;-71
2022/06/13 06:16:23;;;;;;;;;;;;;;;22.58;100.00;99700.56;5091236;28;19912;-70
2022/06/13 06:18:48;;;;;;;;;;;;;;;22.55;100.00;99698.19;5090867;28;19927;-70
2022/06/13 06:21:14;;;;;;;;;;;;;;;22.48;100.00;99698.84;5091003;28;19912;-70
2022/06/13 06:23:39;;;;;;;;;;;;;;;22.38;100.00;99709.13;5089341;28;20008;-69
2022/06/13 06:26:05;;;;;;;;;;;;;;;22.21;100.00;99701.88;5090398;28;19934;-70
2022/06/13 06:28:31;;;;;;;;;;;;;;;22.13;100.00;99715.44;5092384;28;19912;-74
2022/06/13 06:30:57;;;;;;;;;;;;;;;22.12;100.00;99719.00;5094553;28;19916;-70
2022/06/13 06:33:23;;;;;;;;;;;;;;;22.14;100.00;99740.41;5094836;28;19918;-69
2022/06/13 06:35:49;;;;;;;;;;;;;;;22.14;100.00;99747.34;5094327;28;19912;-70
2022/06/13 06:38:14;;;;;;;;;;;;;;;22.12;100.00;99752.66;5076076;28;19965;-68
2022/06/13 06:40:40;;;;;;;;;;;;;;;22.18;100.00;99752.19;5094464;28;19973;-70
2022/06/13 06:43:06;;;;;;;;;;;;;;;22.15;100.00;99748.97;5094633;28;19912;-70
2022/06/13 06:45:31;;;;;;;;;;;;;;;22.07;100.00;99751.34;5093876;28;19907;-68
2022/06/13 06:47:57;;;;;;;;;;;;;;;22.11;100.00;99753.59;5075591;28;19918;-69
2022/06/13 06:50:24;;;;;;;;;;;;;;;22.10;100.00;99756.31;5093909;28;19919;-69
2022/06/13 06:52:50;;;;;;;;;;;;;;;22.11;100.00;99763.94;5093889;28;19912;-69
2022/06/13 07:00:49;;;;;;;;;;;;;;;22.07;100.00;99743.59;5093852;28;19961;-69
2022/06/13 07:03:14;;;;;;;;;;;;;;;22.06;100.00;99763.50;5094189;28;19936;-69
2022/06/13 07:05:40;;;;;;;;;;;;;;;22.17;100.00;99779.00;5093465;28;19962;-70
2022/06/13 07:08:05;;;;;;;;;;;;;;;22.14;100.00;99791.38;5093537;28;20011;-69
2022/06/13 07:10:31;;;;;;;;;;;;;;;22.17;100.00;99793.72;5075611;28;19984;-69
2022/06/13 07:12:56;;;;;;;;;;;;;;;22.26;100.00;99814.53;5093553;28;20347;-69
2022/06/13 07:15:22;;;;;;;;;;;;;;;22.21;100.00;99813.25;5093832;28;19999;-69
2022/06/13 07:17:47;;;;;;;;;;;;;;;22.34;100.00;99821.72;5092146;28;19919;-69
2022/06/13 07:20:13;;;;;;;;;;;;;;;22.50;100.00;99831.69;5093572;28;20405;-70
2022/06/13 07:22:45;;;;;;;;;;;;;;;22.58;100.00;99829.34;5093550;28;19912;-69
2022/06/13 07:25:13;;;;;;;;;;;;;;;22.65;100.00;99825.31;5093397;28;19919;-69
2022/06/13 07:27:38;;;;;;;;;;;;;;;22.73;100.00;99825.53;5075432;28;19971;-68
2022/06/13 07:30:04;;;;;;;;;;;;;;;22.78;100.00;99820.81;5093082;28;19916;-69
2022/06/13 07:32:29;;;;;;;;;;;;;;;23.04;100.00;99809.13;5093693;28;19919;-70
2022/06/13 07:34:54;;;;;;;;;;;;;;;22.87;100.00;99814.88;5093385;28;19927;-69
2022/06/13 07:40:06;;;;;;;;;;;;;;;22.94;100.00;99803.03;5092249;28;19970;-71
2022/06/13 07:42:43;;;;;;;;;;;;;;;22.95;100.00;99813.31;5092698;28;19912;-70
2022/06/13 07:45:13;;;;;;;;;;;;;;;22.98;100.00;99814.81;5093103;28;20029;-69
2022/06/13 07:47:39;;;;;;;;;;;;;;;22.88;100.00;99812.13;5093274;28;19969;-69
2022/06/13 07:50:05;;;;;;;;;;;;;;;22.96;100.00;99832.25;5092994;28;20007;-69
2022/06/13 07:52:32;;;;;;;;;;;;;;;22.94;100.00;99836.75;5092718;28;20069;-69
2022/06/13 07:54:57;;;;;;;;;;;;;;;22.89;100.00;99831.94;5091105;28;20367;-69
2022/06/13 07:57:22;;;;;;;;;;;;;;;22.98;100.00;99835.56;5092949;28;19923;-70
2022/06/13 07:59:48;;;;;;;;;;;;;;;22.86;100.00;99836.53;5092853;28;19912;-70
2022/06/13 08:02:14;;;;;;;;;;;;;;;22.92;100.00;99825.66;5092885;28;20014;-69
2022/06/13 08:04:40;;;;;;;;;;;;;;;22.96;100.00;99809.75;5092761;28;20058;-69
2022/06/13 08:07:06;;;;;;;;;;;;;;;23.07;100.00;99820.09;5074696;28;19912;-69
2022/06/13 08:09:31;;;;;;;;;;;;;;;23.13;100.00;99814.41;5092904;28;19926;-69
2022/06/13 08:11:56;;;;;;;;;;;;;;;23.20;100.00;99817.28;5092098;28;20486;-70
2022/06/13 08:14:22;;;;;;;;;;;;;;;23.17;100.00;99809.78;5092718;28;19912;-69
2022/06/13 08:16:47;;;;;;;;;;;;;;;23.25;100.00;99809.97;5092616;28;19911;-70
2022/06/13 08:19:12;;;;;;;;;;;;;;;23.37;100.00;99821.94;5074254;28;19912;-69
2022/06/13 08:21:38;;;;;;;;;;;;;;;23.45;100.00;99822.13;5092419;28;19918;-68
2022/06/13 08:24:04;;;;;;;;;;;;;;;23.49;100.00;99813.16;5092706;28;20002;-69
2022/06/13 08:26:30;;;;;;;;;;;;;;;23.59;100.00;99790.63;5073926;28;19912;-70
2022/06/13 08:28:55;;;;;;;;;;;;;;;23.54;100.00;99790.19;5092273;28;19966;-70
2022/06/13 08:31:22;;;;;;;;;;;;;;;23.88;100.00;99791.56;5092262;28;19916;-69
2022/06/13 08:33:48;;;;;;;;;;;;;;;24.93;100.00;99798.75;5074026;28;20310;-71
2022/06/13 08:36:14;;;;;;;;;;;;;;;24.75;100.00;99796.03;5092026;28;20373;-69
2022/06/13 08:38:39;;;;;;;;;;;;;;;24.33;100.00;99783.34;5074157;28;19923;-69
2022/06/13 08:41:16;;;;;;;;;;;;;;;25.03;100.00;99798.75;5092133;28;20405;-69
2022/06/13 08:44:00;;;;;;;;;;;;;;;25.35;100.00;99800.06;5091851;28;19951;-69
2022/06/13 08:46:25;;;;;;;;;;;;;;;25.77;100.00;99803.91;5073479;28;19915;-70
2022/06/13 08:48:59;;;;;;;;;;;;;;;26.17;100.00;99805.38;5073587;28;20275;-72
2022/06/13 08:51:36;;;;;;;;;;;;;;;26.19;100.00;99801.66;5073641;28;19974;-69
2022/06/13 08:54:02;;;;;;;;;;;;;;;26.31;100.00;99818.75;5091208;28;19919;-70
2022/06/13 08:56:30;;;;;;;;;;;;;;;26.22;100.00;99814.44;5091754;28;19916;-70
2022/06/13 08:58:57;;;;;;;;;;;;;;;26.56;100.00;99806.78;5073176;28;19916;-69
2022/06/13 09:01:28;;;;;;;;;;;;;;;26.47;100.00;99811.09;5091404;28;19912;-69
2022/06/13 09:04:03;;;;;;;;;;;;;;;26.80;100.00;99808.84;5073411;28;19912;-69
2022/06/13 09:06:45;;;;;;;;;;;;;;;26.32;100.00;99812.59;5091553;28;19994;-69
2022/06/13 09:09:26;;;;;;;;;;;;;;;25.90;100.00;99818.41;5064244;28;19917;-70
2022/06/13 09:12:04;;;;;;;;;;;;;;;25.83;100.00;99812.13;5071262;28;19948;-71
2022/06/13 09:14:34;;;;;;;;;;;;;;;25.33;100.00;99806.38;5071768;28;19919;-71
2022/06/13 09:17:18;;;;;;;;;;;;;;;25.52;100.00;99814.97;5072970;28;19943;-71
2022/06/13 09:19:46;;;;;;;;;;;;;;;25.24;100.00;99809.78;5073979;28;19919;-71
2022/06/13 09:22:34;;;;;;;;;;;;;;;24.97;100.00;99810.53;5091915;28;20003;-71
2022/06/13 09:25:00;;;;;;;;;;;;;;;24.88;100.00;99811.34;5053557;28;19911;-72
2022/06/13 09:27:30;;;;;;;;;;;;;;;24.78;100.00;99816.53;5073603;28;20319;-72
2022/06/13 09:30:00;;;;;;;;;;;;;;;24.95;100.00;99815.03;5073300;28;20002;-72
2022/06/13 09:32:29;;;;;;;;;;;;;;;24.59;100.00;99823.50;5072717;28;19977;-73
2022/06/13 09:34:58;;;;;;;;;;;;;;;24.74;100.00;99820.38;5071790;28;19920;-73
2022/06/13 09:37:43;;;;;;;;;;;;;;;24.55;100.00;99817.75;5054038;28;19919;-73
2022/06/13 09:40:10;;;;;;;;;;;;;;;24.54;100.00;99815.28;5071512;28;19923;-68
2022/06/13 09:42:54;;;;;;;;;;;;;;;24.35;100.00;99810.88;5086473;28;19912;-70
2022/06/13 09:45:30;;;;;;;;;;;;;;;24.38;100.00;99818.41;5070869;28;19938;-69
2022/06/13 09:48:19;;;;;;;;;;;;;;;24.26;100.00;99814.28;5051890;28;19987;-69
2022/06/13 09:50:54;;;;;;;;;;;;;;;24.21;100.00;99818.22;5069743;28;19917;-70
2022/06/13 09:53:26;;;;;;;;;;;;;;;24.35;100.00;99803.06;5068743;28;19916;-70
2022/06/13 09:55:56;;;;;;;;;;;;;;;24.30;100.00;99812.22;5052841;28;19955;-69
2022/06/13 09:58:21;;;;;;;;;;;;;;;24.32;100.00;99807.72;5052568;28;19978;-70
2022/06/13 10:00:53;;;;;;;;;;;;;;;24.33;100.00;99807.59;5051823;28;19916;-71
2022/06/13 10:03:18;;;;;;;;;;;;;;;24.34;100.00;99805.81;5071787;28;19919;-69
2022/06/13 10:05:52;;;;;;;;;;;;;;;24.45;100.00;99808.28;5074112;28;19917;-70
2022/06/13 10:08:25;;;;;;;;;;;;;;;24.45;100.00;99811.72;5055952;28;19912;-69
2022/06/13 10:11:08;;;;;;;;;;;;;;;24.38;100.00;99802.00;5055926;28;19913;-69
2022/06/13 10:13:36;;;;;;;;;;;;;;;24.49;100.00;99809.66;5074278;28;19969;-68
2022/06/13 10:16:10;;;;;;;;;;;;;;;24.68;100.00;99814.88;5074688;28;19931;-69
2022/06/13 10:18:36;;;;;;;;;;;;;;;25.00;100.00;99831.06;5074710;28;19920;-69
2022/06/13 10:21:11;;;;;;;;;;;;;;;25.00;100.00;99831.06;5074364;28;19916;-69
2022/06/13 10:23:55;;;;;;;;;;;;;;;25.04;100.00;99827.22;5074353;28;19912;-70
2022/06/13 10:26:21;;;;;;;;;;;;;;;25.08;100.00;99831.19;5056508;28;20349;-69
2022/06/13 10:29:01;;;;;;;;;;;;;;;25.15;100.00;99834.06;5056464;28;19913;-69
2022/06/13 10:31:29;;;;;;;;;;;;;;;25.27;100.00;99839.00;5055959;28;20009;-70
2022/06/13 10:34:14;;;;;;;;;;;;;;;25.50;100.00;99840.34;5056289;28;19913;-70
2022/06/13 10:36:54;;;;;;;;;;;;;;;25.67;100.00;99836.19;5074312;28;19920;-69
2022/06/13 10:39:21;;;;;;;;;;;;;;;25.67;100.00;99836.97;5056004;28;19928;-69
2022/06/13 10:41:48;;;;;;;;;;;;;;;25.67;100.00;99842.19;5074021;28;19915;-69
2022/06/13 10:44:14;;;;;;;;;;;;;;;25.87;100.00;99842.94;5056363;28;20258;-70
2022/06/13 10:46:54;;;;;;;;;;;;;;;25.90;100.00;99839.25;5052262;28;19924;-70
2022/06/13 10:49:34;;;;;;;;;;;;;;;25.88;100.00;99841.16;5054021;28;19913;-69
2022/06/13 10:52:03;;;;;;;;;;;;;;;26.05;100.00;99840.44;5054369;28;19967;-69
2022/06/13 10:54:32;;;;;;;;;;;;;;;26.09;100.00;99836.56;5053782;28;19916;-69
2022/06/13 10:57:09;;;;;;;;;;;;;;;26.12;100.00;99839.72;5053419;28;19923;-70
2022/06/13 10:59:36;;;;;;;;;;;;;;;26.16;100.00;99832.44;5054014;28;20291;-70
2022/06/13 11:02:03;;;;;;;;;;;;;;;26.13;100.00;99833.53;5052090;28;19970;-69
2022/06/13 11:04:36;;;;;;;;;;;;;;;26.18;100.00;99835.72;5053815;28;19913;-70
2022/06/13 11:07:13;;;;;;;;;;;;;;;26.42;100.00;99833.38;5052073;28;20354;-69
2022/06/13 11:09:40;;;;;;;;;;;;;;;26.60;100.00;99837.63;5051972;28;19913;-69
2022/06/13 11:12:16;;;;;;;;;;;;;;;26.59;100.00;99835.19;5053524;28;19913;-69
2022/06/13 11:23:05;;;;;;;;;;;;;;;27.01;100.00;99815.38;5053640;28;19920;-69
2022/06/13 11:25:32;;;;;;;;;;;;;;;27.01;100.00;99820.59;5053476;28;19912;-70
2022/06/13 11:28:00;;;;;;;;;;;;;;;27.35;100.00;99808.47;5053280;28;19912;-69
2022/06/13 11:30:26;;;;;;;;;;;;;;;26.89;100.00;99816.56;5052577;28;19912;-66
2022/06/13 11:32:57;;;;;;;;;;;;;;;27.27;100.00;99810.16;5064859;28;20280;-68
2022/06/13 11:35:42;;;;;;;;;;;;;;;27.23;100.00;99808.84;5072674;28;20309;-68
2022/06/13 11:38:20;;;;;;;;;;;;;;;27.86;100.00;99812.00;5071315;28;20012;-69
2022/06/13 11:40:47;;;;;;;;;;;;;;;27.19;100.00;99810.94;5071325;28;20349;-70
2022/06/13 11:43:30;;;;;;;;;;;;;;;27.23;100.00;99812.28;5071225;28;19912;-70
2022/06/13 11:45:57;;;;;;;;;;;;;;;27.18;100.00;99808.47;5067899;28;19916;-69
2022/06/13 11:48:23;;;;;;;;;;;;;;;26.93;100.00;99815.31;5070830;28;19912;-69
2022/06/13 11:50:52;;;;;;;;;;;;;;;26.92;100.00;99813.66;5071282;28;20338;-71
2022/06/13 11:53:36;;;;;;;;;;;;;;;27.02;100.00;99814.38;5070828;28;19916;-70
2022/06/13 11:56:03;;;;;;;;;;;;;;;27.23;100.00;99801.00;5072551;28;19912;-69
2022/06/13 11:58:31;;;;;;;;;;;;;;;27.16;100.00;99805.19;5070904;28;19943;-69
2022/06/13 12:01:03;;;;;;;;;;;;;;;27.14;100.00;99807.94;5070760;28;19997;-69
2022/06/13 12:03:28;;;;;;;;;;;;;;;27.22;100.00;99804.56;5070374;28;19916;-70
2022/06/13 12:05:58;;;;;;;;;;;;;;;27.47;100.00;99802.97;5072175;28;19962;-70
2022/06/13 12:08:26;;;;;;;;;;;;;;;27.22;100.00;99805.41;5070713;28;20003;-69
2022/06/13 12:11:00;;;;;;;;;;;;;;;27.37;100.00;99805.69;5071996;28;19913;-70
2022/06/13 12:13:26;;;;;;;;;;;;;;;27.17;100.00;99804.22;5070564;28;19912;-70
2022/06/13 12:15:57;;;;;;;;;;;;;;;27.59;100.00;99789.50;5071006;28;20381;-70
2022/06/13 12:18:42;;;;;;;;;;;;;;;27.84;100.00;99793.84;5071869;28;19912;-71
2022/06/13 12:21:13;;;;;;;;;;;;;;;28.18;100.00;99789.44;5071060;28;19920;-70
2022/06/13 12:24:02;;;;;;;;;;;;;;;28.49;100.00;99784.41;5070918;28;19923;-69
2022/06/13 12:26:29;;;;;;;;;;;;;;;28.69;100.00;99791.00;5032989;28;19919;-70
2022/06/13 12:29:03;;;;;;;;;;;;;;;28.66;100.00;99788.69;5071861;28;20323;-70
2022/06/13 12:31:31;;;;;;;;;;;;;;;28.85;100.00;99784.94;5070661;28;19923;-70
2022/06/13 12:34:15;;;;;;;;;;;;;;;28.78;100.00;99782.16;5072027;28;20002;-70
2022/06/13 12:36:40;;;;;;;;;;;;;;;28.75;100.00;99782.50;5071735;28;19908;-70
2022/06/13 12:39:22;;;;;;;;;;;;;;;29.40;100.00;99782.44;5070605;28;19919;-71
2022/06/13 12:42:13;;;;;;;;;;;;;;;28.98;100.00;99780.03;5072105;28;20359;-70
2022/06/13 12:44:51;;;;;;;;;;;;;;;29.51;100.00;99776.84;5066008;28;20010;-70
2022/06/13 12:47:26;;;;;;;;;;;;;;;29.26;100.00;99776.09;5070354;28;19923;-70
2022/06/13 12:49:51;;;;;;;;;;;;;;;29.14;100.00;99763.53;5071419;28;19912;-70
2022/06/13 12:52:25;;;;;;;;;;;;;;;29.37;100.00;99764.44;5071256;28;19938;-70
2022/06/13 12:54:50;;;;;;;;;;;;;;;29.47;100.00;99757.22;5071709;28;19912;-70
2022/06/13 12:57:31;;;;;;;;;;;;;;;29.54;100.00;99760.78;5070305;28;20363;-70
2022/06/13 13:00:02;;;;;;;;;;;;;;;29.59;100.00;99756.69;5071420;28;20290;-72
2022/06/13 13:02:35;;;;;;;;;;;;;;;29.23;100.00;99755.47;5071766;28;19965;-70
2022/06/13 13:05:03;;;;;;;;;;;;;;;29.19;100.00;99754.19;5071294;28;19912;-70
2022/06/13 13:07:41;;;;;;;;;;;;;;;29.37;100.00;99746.94;5070416;28;19916;-70
2022/06/13 13:10:18;;;;;;;;;;;;;;;29.07;100.00;99753.69;5070011;28;19999;-69
2022/06/13 13:12:57;;;;;;;;;;;;;;;29.52;100.00;99750.47;5071068;28;19920;-68